createdAt,value
2023-09-08T00:00:41.937Z,956.2
2023-09-08T00:01:44.212Z,956.2
2023-09-08T00:02:46.347Z,956.2
2023-09-08T00:03:48.403Z,956.2
2023-09-08T00:04:50.455Z,956.2
2023-09-08T00:05:52.358Z,956.3
2023-09-08T00:06:54.363Z,956.2
2023-09-08T00:07:56.352Z,956.2
2023-09-08T00:08:58.080Z,956.2
2023-09-08T00:09:59.812Z,956.2
2023-09-08T00:11:01.625Z,956.2
2023-09-08T00:12:03.711Z,956.2
2023-09-08T00:13:05.489Z,956.2
2023-09-08T00:14:07.243Z,956.2
2023-09-08T00:15:09.034Z,956.2
2023-09-08T00:16:11.432Z,956.2
2023-09-08T00:17:13.667Z,956.2
2023-09-08T00:18:15.601Z,956.2
2023-09-08T00:19:17.469Z,956.3
2023-09-08T00:20:19.159Z,956.2
2023-09-08T00:21:21.033Z,956.2
2023-09-08T00:22:22.905Z,956.2
2023-09-08T00:23:24.665Z,956.2
2023-09-08T00:24:26.458Z,956.2
2023-09-08T00:25:28.230Z,956.2
2023-09-08T00:26:29.950Z,956.2
2023-09-08T00:27:31.740Z,956.2
2023-09-08T00:28:34.515Z,956.2
2023-09-08T00:29:36.950Z,956.2
2023-09-08T00:30:38.718Z,956.2
2023-09-08T00:31:40.431Z,956.2
2023-09-08T00:32:42.679Z,956.2
2023-09-08T00:33:45.104Z,956.2
2023-09-08T00:34:47.303Z,956.2
2023-09-08T00:35:49.050Z,956.2
2023-09-08T00:36:50.878Z,956.1
2023-09-08T00:37:52.662Z,956.2
2023-09-08T00:38:54.361Z,956.1
2023-09-08T00:39:56.109Z,956.1
2023-09-08T00:40:57.965Z,956.1
2023-09-08T00:41:59.795Z,956.1
2023-09-08T00:43:01.619Z,956.1
2023-09-08T00:44:03.386Z,956.1
2023-09-08T00:45:05.275Z,956.1
2023-09-08T00:46:07.764Z,956.1
2023-09-08T00:47:09.861Z,956.1
2023-09-08T00:48:12.070Z,956.1
2023-09-08T00:49:14.056Z,956.1
2023-09-08T00:50:15.954Z,956.1
2023-09-08T00:51:17.863Z,956.1
2023-09-08T00:52:19.631Z,956.1
2023-09-08T00:53:21.361Z,956.1
2023-09-08T00:54:23.110Z,956
2023-09-08T00:55:24.862Z,956.1
2023-09-08T00:56:26.674Z,956.1
2023-09-08T00:57:28.540Z,956.1
2023-09-08T00:58:30.399Z,956.1
2023-09-08T00:59:32.154Z,956.1
2023-09-08T01:00:34.252Z,956.1
2023-09-08T01:01:36.583Z,956.1
2023-09-08T01:02:38.612Z,956.1
2023-09-08T01:03:40.970Z,956.1
2023-09-08T01:04:43.733Z,956.1
2023-09-08T01:05:45.867Z,956.1
2023-09-08T01:06:48.039Z,956.1
2023-09-08T01:07:49.941Z,956.1
2023-09-08T01:08:52.277Z,956.1
2023-09-08T01:09:54.683Z,956.1
2023-09-08T01:10:56.703Z,956.1
2023-09-08T01:11:58.559Z,956.1
2023-09-08T01:13:00.368Z,956.1
2023-09-08T01:14:02.113Z,956
2023-09-08T01:15:04.386Z,956
2023-09-08T01:16:06.386Z,956
2023-09-08T01:17:08.494Z,956
2023-09-08T01:18:10.835Z,956
2023-09-08T01:19:12.934Z,956.1
2023-09-08T01:20:14.703Z,956.1
2023-09-08T01:21:16.563Z,956.1
2023-09-08T01:22:18.359Z,956.1
2023-09-08T01:23:20.148Z,956
2023-09-08T01:24:22.111Z,956.1
2023-09-08T01:25:24.080Z,956.1
2023-09-08T01:26:25.924Z,956.1
2023-09-08T01:27:27.627Z,956.1
2023-09-08T01:28:29.758Z,956.1
2023-09-08T01:29:31.870Z,956.1
2023-09-08T01:30:33.651Z,956.1
2023-09-08T01:31:35.721Z,956
2023-09-08T01:32:37.808Z,956
2023-09-08T01:33:39.635Z,956
2023-09-08T01:34:41.383Z,956
2023-09-08T01:35:43.102Z,956
2023-09-08T01:36:44.801Z,956
2023-09-08T01:37:46.505Z,956
2023-09-08T01:38:48.547Z,956
2023-09-08T01:39:50.412Z,956
2023-09-08T01:40:52.179Z,956
2023-09-08T01:41:54.001Z,956
2023-09-08T01:42:55.742Z,955.9
2023-09-08T01:43:57.544Z,955.9
2023-09-08T01:44:59.302Z,955.9
2023-09-08T01:46:01.203Z,955.9
2023-09-08T01:47:05.431Z,956
2023-09-08T01:48:07.292Z,955.9
2023-09-08T01:49:09.368Z,956
2023-09-08T01:50:11.303Z,955.9
2023-09-08T01:51:13.069Z,955.9
2023-09-08T01:52:15.225Z,956
2023-09-08T01:53:17.099Z,956
2023-09-08T01:54:18.956Z,956
2023-09-08T01:55:20.729Z,956
2023-09-08T01:56:22.467Z,956
2023-09-08T01:57:24.206Z,956
2023-09-08T01:58:26.306Z,956
2023-09-08T01:59:28.104Z,956
2023-09-08T02:00:30.024Z,956
2023-09-08T02:01:31.921Z,956
2023-09-08T02:02:34.042Z,955.9
2023-09-08T02:03:35.843Z,955.9
2023-09-08T02:04:37.877Z,956
2023-09-08T02:05:40.147Z,955.9
2023-09-08T02:06:42.190Z,955.9
2023-09-08T02:07:44.135Z,955.9
2023-09-08T02:08:46.002Z,955.9
2023-09-08T02:09:47.831Z,955.9
2023-09-08T02:10:49.628Z,955.9
2023-09-08T02:11:51.349Z,955.9
2023-09-08T02:12:53.079Z,955.9
2023-09-08T02:13:59.007Z,955.9
2023-09-08T02:15:01.042Z,955.9
2023-09-08T02:16:03.700Z,955.9
2023-09-08T02:17:05.823Z,955.8
2023-09-08T02:18:07.682Z,955.8
2023-09-08T02:19:09.777Z,955.8
2023-09-08T02:20:13.753Z,955.8
2023-09-08T02:21:15.674Z,955.8
2023-09-08T02:22:17.507Z,955.8
2023-09-08T02:23:19.229Z,955.7
2023-09-08T02:24:21.269Z,955.7
2023-09-08T02:25:23.278Z,955.7
2023-09-08T02:26:25.057Z,955.7
2023-09-08T02:27:26.779Z,955.7
2023-09-08T02:28:28.812Z,955.7
2023-09-08T02:29:30.648Z,955.7
2023-09-08T02:30:32.670Z,955.7
2023-09-08T02:31:34.705Z,955.7
2023-09-08T02:32:36.536Z,955.7
2023-09-08T02:33:38.673Z,955.7
2023-09-08T02:34:40.702Z,955.7
2023-09-08T02:35:42.462Z,955.6
2023-09-08T02:36:44.545Z,955.7
2023-09-08T02:37:46.415Z,955.7
2023-09-08T02:38:48.155Z,955.7
2023-09-08T02:39:49.906Z,955.7
2023-09-08T02:40:51.736Z,955.7
2023-09-08T02:41:53.467Z,955.6
2023-09-08T02:42:55.390Z,955.7
2023-09-08T02:43:57.105Z,955.7
2023-09-08T02:44:58.800Z,955.7
2023-09-08T02:46:00.992Z,955.7
2023-09-08T02:47:03.021Z,955.6
2023-09-08T02:48:05.109Z,955.6
2023-09-08T02:49:07.095Z,955.6
2023-09-08T02:50:08.945Z,955.6
2023-09-08T02:51:10.725Z,955.6
2023-09-08T02:52:12.426Z,955.6
2023-09-08T02:53:14.133Z,955.6
2023-09-08T02:54:15.986Z,955.6
2023-09-08T02:55:17.744Z,955.6
2023-09-08T02:56:19.539Z,955.6
2023-09-08T02:57:21.319Z,955.5
2023-09-08T02:58:23.274Z,955.6
2023-09-08T02:59:25.039Z,955.5
2023-09-08T03:00:26.843Z,955.5
2023-09-08T03:01:28.921Z,955.5
2023-09-08T03:02:31.566Z,955.5
2023-09-08T03:03:34.162Z,955.5
2023-09-08T03:04:36.444Z,955.5
2023-09-08T03:05:38.570Z,955.5
2023-09-08T03:06:40.661Z,955.5
2023-09-08T03:07:42.622Z,955.5
2023-09-08T03:08:44.554Z,955.5
2023-09-08T03:09:46.341Z,955.5
2023-09-08T03:10:48.075Z,955.5
2023-09-08T03:11:49.910Z,955.5
2023-09-08T03:12:51.833Z,955.5
2023-09-08T03:13:53.678Z,955.6
2023-09-08T03:14:55.451Z,955.5
2023-09-08T03:15:57.313Z,955.6
2023-09-08T03:16:59.323Z,955.5
2023-09-08T03:18:01.510Z,955.5
2023-09-08T03:19:03.535Z,955.6
2023-09-08T03:20:05.417Z,955.5
2023-09-08T03:21:07.260Z,955.5
2023-09-08T03:22:08.976Z,955.6
2023-09-08T03:23:10.843Z,955.6
2023-09-08T03:24:12.592Z,955.6
2023-09-08T03:25:14.321Z,955.6
2023-09-08T03:26:16.068Z,955.5
2023-09-08T03:27:17.842Z,955.6
2023-09-08T03:28:19.557Z,955.6
2023-09-08T03:29:21.256Z,955.6
2023-09-08T03:30:23.133Z,955.6
2023-09-08T03:31:25.542Z,955.6
2023-09-08T03:32:28.138Z,955.6
2023-09-08T03:33:31.011Z,955.6
2023-09-08T03:34:33.387Z,955.6
2023-09-08T03:35:35.374Z,955.6
2023-09-08T03:36:37.551Z,955.5
2023-09-08T03:37:39.445Z,955.6
2023-09-08T03:38:41.141Z,955.6
2023-09-08T03:39:42.985Z,955.6
2023-09-08T03:40:44.793Z,955.6
2023-09-08T03:41:46.527Z,955.6
2023-09-08T03:42:48.604Z,955.6
2023-09-08T03:43:50.589Z,955.6
2023-09-08T03:44:52.281Z,955.6
2023-09-08T03:45:54.336Z,955.6
2023-09-08T03:46:56.608Z,955.6
2023-09-08T03:47:58.528Z,955.6
2023-09-08T03:49:00.392Z,955.6
2023-09-08T03:50:02.456Z,955.6
2023-09-08T03:51:04.431Z,955.6
2023-09-08T03:52:06.214Z,955.6
2023-09-08T03:53:08.294Z,955.6
2023-09-08T03:54:10.218Z,955.6
2023-09-08T03:55:11.965Z,955.6
2023-09-08T03:56:13.906Z,955.6
2023-09-08T03:57:15.682Z,955.6
2023-09-08T03:58:17.533Z,955.6
2023-09-08T03:59:19.305Z,955.6
2023-09-08T04:00:21.225Z,955.5
2023-09-08T04:01:23.249Z,955.6
2023-09-08T04:02:25.229Z,955.6
2023-09-08T04:03:28.482Z,955.6
2023-09-08T04:04:31.822Z,955.6
2023-09-08T04:05:33.852Z,955.6
2023-09-08T04:06:35.737Z,955.6
2023-09-08T04:07:37.624Z,955.6
2023-09-08T04:08:39.449Z,955.6
2023-09-08T04:09:42.371Z,955.6
2023-09-08T04:10:44.195Z,955.6
2023-09-08T04:11:46.088Z,955.6
2023-09-08T04:12:48.036Z,955.5
2023-09-08T04:13:49.914Z,955.6
2023-09-08T04:14:51.827Z,955.6
2023-09-08T04:15:54.095Z,955.5
2023-09-08T04:16:55.865Z,955.5
2023-09-08T04:17:57.944Z,955.6
2023-09-08T04:19:00.344Z,955.6
2023-09-08T04:20:02.156Z,955.6
2023-09-08T04:21:04.218Z,955.6
2023-09-08T04:22:06.164Z,955.6
2023-09-08T04:23:07.948Z,955.6
2023-09-08T04:24:09.748Z,955.6
2023-09-08T04:25:11.673Z,955.6
2023-09-08T04:26:13.418Z,955.6
2023-09-08T04:27:16.386Z,955.6
2023-09-08T04:28:18.200Z,955.6
2023-09-08T04:29:20.001Z,955.6
2023-09-08T04:30:22.133Z,955.6
2023-09-08T04:31:24.398Z,955.7
2023-09-08T04:32:26.351Z,955.7
2023-09-08T04:33:28.452Z,955.7
2023-09-08T04:34:30.493Z,955.7
2023-09-08T04:35:32.266Z,955.7
2023-09-08T04:36:34.017Z,955.7
2023-09-08T04:37:35.819Z,955.7
2023-09-08T04:38:37.701Z,955.7
2023-09-08T04:39:39.627Z,955.7
2023-09-08T04:40:41.548Z,955.7
2023-09-08T04:41:43.460Z,955.8
2023-09-08T04:42:45.463Z,955.8
2023-09-08T04:43:47.376Z,955.7
2023-09-08T04:44:49.192Z,955.8
2023-09-08T04:45:50.966Z,955.8
2023-09-08T04:46:52.790Z,955.8
2023-09-08T04:47:54.853Z,955.7
2023-09-08T04:48:56.900Z,955.8
2023-09-08T04:49:59.161Z,955.8
2023-09-08T04:51:01.149Z,955.8
2023-09-08T04:52:02.919Z,955.7
2023-09-08T04:53:04.820Z,955.8
2023-09-08T04:54:06.617Z,955.7
2023-09-08T04:55:08.363Z,955.8
2023-09-08T04:56:10.038Z,955.7
2023-09-08T04:57:24.407Z,955.7
2023-09-08T04:58:26.333Z,955.7
2023-09-08T04:59:28.253Z,955.7
2023-09-08T05:00:30.165Z,955.7
2023-09-08T05:01:32.210Z,955.7
2023-09-08T05:02:34.192Z,955.7
2023-09-08T05:03:36.773Z,955.8
2023-09-08T05:04:38.922Z,955.8
2023-09-08T05:05:41.033Z,955.7
2023-09-08T05:06:42.904Z,955.8
2023-09-08T05:07:44.638Z,955.8
2023-09-08T05:08:46.600Z,955.8
2023-09-08T05:09:48.481Z,955.8
2023-09-08T05:10:50.252Z,955.8
2023-09-08T05:11:52.418Z,955.8
2023-09-08T05:12:54.383Z,955.8
2023-09-08T05:13:56.093Z,955.8
2023-09-08T05:14:57.870Z,955.7
2023-09-08T05:15:59.819Z,955.8
2023-09-08T05:17:01.587Z,955.8
2023-09-08T05:18:03.598Z,955.8
2023-09-08T05:19:05.719Z,955.9
2023-09-08T05:20:07.732Z,955.8
2023-09-08T05:21:09.726Z,955.8
2023-09-08T05:22:11.819Z,955.8
2023-09-08T05:23:13.608Z,955.8
2023-09-08T05:24:15.446Z,955.8
2023-09-08T05:25:17.738Z,955.9
2023-09-08T05:26:19.736Z,955.8
2023-09-08T05:27:21.809Z,955.8
2023-09-08T05:28:23.788Z,955.8
2023-09-08T05:29:25.728Z,955.8
2023-09-08T05:30:27.460Z,955.8
2023-09-08T05:31:29.626Z,955.8
2023-09-08T05:32:32.022Z,955.8
2023-09-08T05:33:34.192Z,955.8
2023-09-08T05:34:35.979Z,955.8
2023-09-08T05:35:37.872Z,955.8
2023-09-08T05:36:39.905Z,955.8
2023-09-08T05:37:41.646Z,955.8
2023-09-08T05:38:43.558Z,955.8
2023-09-08T05:39:45.516Z,955.8
2023-09-08T05:40:47.301Z,955.8
2023-09-08T05:41:49.187Z,955.8
2023-09-08T05:42:50.909Z,955.8
2023-09-08T05:43:52.635Z,955.8
2023-09-08T05:44:54.414Z,955.8
2023-09-08T05:45:56.209Z,955.8
2023-09-08T05:46:58.459Z,955.9
2023-09-08T05:48:00.909Z,955.9
2023-09-08T05:49:03.089Z,955.9
2023-09-08T05:50:04.946Z,955.9
2023-09-08T05:51:06.713Z,955.9
2023-09-08T05:52:08.705Z,955.9
2023-09-08T05:53:10.833Z,955.9
2023-09-08T05:54:12.741Z,955.9
2023-09-08T05:55:14.569Z,955.9
2023-09-08T05:56:16.491Z,955.9
2023-09-08T05:57:18.376Z,955.9
2023-09-08T05:58:20.318Z,955.9
2023-09-08T05:59:22.023Z,955.8
2023-09-08T06:00:24.005Z,955.8
2023-09-08T06:01:25.955Z,955.9
2023-09-08T06:02:28.252Z,955.9
2023-09-08T06:03:30.604Z,955.9
2023-09-08T06:04:33.053Z,955.9
2023-09-08T06:05:35.034Z,955.9
2023-09-08T06:06:36.784Z,955.9
2023-09-08T06:07:39.584Z,955.9
2023-09-08T06:08:45.638Z,955.9
2023-09-08T06:09:47.471Z,955.9
2023-09-08T06:10:49.233Z,955.9
2023-09-08T06:11:50.978Z,955.9
2023-09-08T06:12:52.992Z,955.9
2023-09-08T06:13:54.805Z,955.9
2023-09-08T06:14:56.557Z,955.9
2023-09-08T06:15:58.313Z,955.9
2023-09-08T06:17:00.178Z,955.9
2023-09-08T06:18:02.128Z,955.8
2023-09-08T06:19:06.968Z,955.9
2023-09-08T06:20:08.670Z,955.9
2023-09-08T06:21:10.887Z,955.9
2023-09-08T06:22:12.702Z,955.9
2023-09-08T06:23:14.462Z,955.9
2023-09-08T06:24:16.177Z,955.9
2023-09-08T06:25:17.900Z,955.9
2023-09-08T06:26:19.656Z,956
2023-09-08T06:27:21.416Z,955.9
2023-09-08T06:28:23.170Z,956
2023-09-08T06:29:24.882Z,955.9
2023-09-08T06:30:26.622Z,956
2023-09-08T06:31:28.602Z,956
2023-09-08T06:32:30.576Z,956
2023-09-08T06:33:32.906Z,956
2023-09-08T06:34:35.487Z,956
2023-09-08T06:35:37.362Z,956
2023-09-08T06:36:39.293Z,956
2023-09-08T06:37:41.306Z,956.1
2023-09-08T06:38:43.008Z,956.1
2023-09-08T06:39:44.794Z,956.1
2023-09-08T06:40:46.665Z,956.1
2023-09-08T06:41:48.427Z,956
2023-09-08T06:42:50.186Z,956.1
2023-09-08T06:43:52.028Z,956.1
2023-09-08T06:44:53.740Z,956.1
2023-09-08T06:45:55.687Z,956.1
2023-09-08T06:46:57.742Z,956.1
2023-09-08T06:48:00.239Z,956.1
2023-09-08T06:49:05.823Z,956.1
2023-09-08T06:50:07.639Z,956.1
2023-09-08T06:51:09.830Z,956
2023-09-08T06:52:11.837Z,956.1
2023-09-08T06:53:13.605Z,956.1
2023-09-08T06:54:15.608Z,956.1
2023-09-08T06:55:17.294Z,956.1
2023-09-08T06:56:19.085Z,956.1
2023-09-08T06:57:20.870Z,956.1
2023-09-08T06:58:22.651Z,956.1
2023-09-08T06:59:24.489Z,956.1
2023-09-08T07:00:26.296Z,956
2023-09-08T07:01:28.895Z,956.1
2023-09-08T07:02:31.686Z,956
2023-09-08T07:03:34.817Z,956.1
2023-09-08T07:04:37.801Z,956.1
2023-09-08T07:05:39.951Z,956.1
2023-09-08T07:06:41.875Z,956.1
2023-09-08T07:07:44.470Z,956.1
2023-09-08T07:08:46.195Z,956
2023-09-08T07:09:47.908Z,956.1
2023-09-08T07:10:49.867Z,956.1
2023-09-08T07:11:51.770Z,956.1
2023-09-08T07:12:53.522Z,956.1
2023-09-08T07:13:55.298Z,956.1
2023-09-08T07:14:56.997Z,956.1
2023-09-08T07:15:59.003Z,956.1
2023-09-08T07:17:01.287Z,956
2023-09-08T07:18:06.923Z,956.1
2023-09-08T07:19:08.744Z,956.1
2023-09-08T07:20:10.771Z,956.1
2023-09-08T07:21:12.533Z,956.1
2023-09-08T07:22:14.288Z,956.1
2023-09-08T07:23:16.011Z,956
2023-09-08T07:24:17.738Z,956
2023-09-08T07:25:19.494Z,956
2023-09-08T07:26:21.272Z,956
2023-09-08T07:27:23.008Z,956
2023-09-08T07:28:24.784Z,956
2023-09-08T07:29:26.519Z,956
2023-09-08T07:30:28.839Z,956
2023-09-08T07:31:31.088Z,956
2023-09-08T07:32:33.019Z,956
2023-09-08T07:33:34.974Z,956
2023-09-08T07:34:36.884Z,956
2023-09-08T07:35:38.834Z,956
2023-09-08T07:36:40.772Z,956
2023-09-08T07:37:42.690Z,956
2023-09-08T07:38:44.488Z,956
2023-09-08T07:39:46.192Z,956
2023-09-08T07:40:47.955Z,955.9
2023-09-08T07:41:49.758Z,955.9
2023-09-08T07:42:51.702Z,955.9
2023-09-08T07:43:53.911Z,955.9
2023-09-08T07:44:55.866Z,955.9
2023-09-08T07:45:57.801Z,955.9
2023-09-08T07:46:59.719Z,955.9
2023-09-08T07:48:01.913Z,955.9
2023-09-08T07:49:04.241Z,955.9
2023-09-08T07:50:06.604Z,955.9
2023-09-08T07:51:08.415Z,955.9
2023-09-08T07:52:10.174Z,955.9
2023-09-08T07:53:11.885Z,955.9
2023-09-08T07:54:13.571Z,955.9
2023-09-08T07:55:15.651Z,955.9
2023-09-08T07:56:18.094Z,955.9
2023-09-08T07:57:19.878Z,955.9
2023-09-08T07:58:21.571Z,955.9
2023-09-08T07:59:23.472Z,955.9
2023-09-08T08:00:25.285Z,955.9
2023-09-08T08:01:27.586Z,955.9
2023-09-08T08:02:30.075Z,955.9
2023-09-08T08:03:32.199Z,955.9
2023-09-08T08:04:34.218Z,955.9
2023-09-08T08:05:36.166Z,955.9
2023-09-08T08:06:38.143Z,955.8
2023-09-08T08:07:39.949Z,955.8
2023-09-08T08:08:41.986Z,955.8
2023-09-08T08:09:43.802Z,955.9
2023-09-08T08:10:45.532Z,955.8
2023-09-08T08:11:47.397Z,955.8
2023-09-08T08:12:49.348Z,955.8
2023-09-08T08:13:51.046Z,955.8
2023-09-08T08:14:52.963Z,955.9
2023-09-08T08:15:55.042Z,955.8
2023-09-08T08:16:56.827Z,955.9
2023-09-08T08:17:58.941Z,955.8
2023-09-08T08:19:01.262Z,955.8
2023-09-08T08:20:03.322Z,955.8
2023-09-08T08:21:05.401Z,955.8
2023-09-08T08:22:08.073Z,955.8
2023-09-08T08:23:10.062Z,955.8
2023-09-08T08:24:12.261Z,955.8
2023-09-08T08:25:14.096Z,955.7
2023-09-08T08:26:15.824Z,955.8
2023-09-08T08:27:17.620Z,955.8
2023-09-08T08:28:19.460Z,955.8
2023-09-08T08:29:21.218Z,955.7
2023-09-08T08:30:23.143Z,955.7
2023-09-08T08:31:25.106Z,955.7
2023-09-08T08:32:27.287Z,955.8
2023-09-08T08:33:29.257Z,955.8
2023-09-08T08:34:31.088Z,955.8
2023-09-08T08:35:32.804Z,955.8
2023-09-08T08:36:34.635Z,955.8
2023-09-08T08:37:36.918Z,955.8
2023-09-08T08:38:38.735Z,955.8
2023-09-08T08:39:40.470Z,955.8
2023-09-08T08:40:42.317Z,955.8
2023-09-08T08:41:44.098Z,955.8
2023-09-08T08:42:45.838Z,955.8
2023-09-08T08:43:47.658Z,955.7
2023-09-08T08:44:49.416Z,955.7
2023-09-08T08:45:51.335Z,955.7
2023-09-08T08:46:53.357Z,955.7
2023-09-08T08:47:55.346Z,955.8
2023-09-08T08:48:57.228Z,955.7
2023-09-08T08:49:58.919Z,955.7
2023-09-08T08:51:00.669Z,955.7
2023-09-08T08:52:02.410Z,955.8
2023-09-08T08:53:04.275Z,955.7
2023-09-08T08:54:06.058Z,955.7
2023-09-08T08:55:07.854Z,955.7
2023-09-08T08:56:09.656Z,955.7
2023-09-08T08:57:11.777Z,955.6
2023-09-08T08:58:13.569Z,955.7
2023-09-08T08:59:15.408Z,955.7
2023-09-08T09:00:17.534Z,955.7
2023-09-08T09:01:19.701Z,955.7
2023-09-08T09:02:21.620Z,955.7
2023-09-08T09:03:23.707Z,955.6
2023-09-08T09:04:25.899Z,955.7
2023-09-08T09:05:27.900Z,955.6
2023-09-08T09:06:29.730Z,955.6
2023-09-08T09:07:31.720Z,955.6
2023-09-08T09:08:34.632Z,955.6
2023-09-08T09:09:37.479Z,955.6
2023-09-08T09:10:39.374Z,955.6
2023-09-08T09:11:41.242Z,955.6
2023-09-08T09:12:43.176Z,955.6
2023-09-08T09:13:44.898Z,955.6
2023-09-08T09:14:46.958Z,955.6
2023-09-08T09:15:49.005Z,955.6
2023-09-08T09:16:50.886Z,955.6
2023-09-08T09:17:56.203Z,955.6
2023-09-08T09:18:59.401Z,955.6
2023-09-08T09:20:03.577Z,955.5
2023-09-08T09:21:05.296Z,955.5
2023-09-08T09:22:07.054Z,955.6
2023-09-08T09:23:08.850Z,955.6
2023-09-08T09:24:11.199Z,955.5
2023-09-08T09:25:13.789Z,955.5
2023-09-08T09:26:16.132Z,955.5
2023-09-08T09:27:18.280Z,955.5
2023-09-08T09:28:20.174Z,955.5
2023-09-08T09:29:21.944Z,955.5
2023-09-08T09:30:23.943Z,955.5
2023-09-08T09:31:26.135Z,955.5
2023-09-08T09:32:28.448Z,955.5
2023-09-08T09:33:30.834Z,955.5
2023-09-08T09:34:33.057Z,955.5
2023-09-08T09:35:34.883Z,955.6
2023-09-08T09:36:36.656Z,955.6
2023-09-08T09:37:38.721Z,955.6
2023-09-08T09:38:40.617Z,955.5
2023-09-08T09:39:42.776Z,955.5
2023-09-08T09:40:44.938Z,955.5
2023-09-08T09:41:46.750Z,955.5
2023-09-08T09:42:48.754Z,955.5
2023-09-08T09:43:50.656Z,955.6
2023-09-08T09:44:52.560Z,955.6
2023-09-08T09:45:54.668Z,955.5
2023-09-08T09:46:56.776Z,955.5
2023-09-08T09:47:58.662Z,955.5
2023-09-08T09:49:00.536Z,955.5
2023-09-08T09:50:02.302Z,955.5
2023-09-08T09:51:04.058Z,955.5
2023-09-08T09:52:05.835Z,955.5
2023-09-08T09:53:07.643Z,955.4
2023-09-08T09:54:09.495Z,955.4
2023-09-08T09:55:11.375Z,955.4
2023-09-08T09:56:13.230Z,955.3
2023-09-08T09:57:15.042Z,955.4
2023-09-08T09:58:17.458Z,955.4
2023-09-08T09:59:19.334Z,955.4
2023-09-08T10:00:21.447Z,955.4
2023-09-08T10:01:23.682Z,955.4
2023-09-08T10:02:25.806Z,955.4
2023-09-08T10:03:28.046Z,955.4
2023-09-08T10:04:30.729Z,955.3
2023-09-08T10:05:32.563Z,955.3
2023-09-08T10:06:34.607Z,955.3
2023-09-08T10:07:36.570Z,955.3
2023-09-08T10:08:38.967Z,955.3
2023-09-08T10:09:40.772Z,955.3
2023-09-08T10:10:42.719Z,955.3
2023-09-08T10:11:45.199Z,955.3
2023-09-08T10:12:47.505Z,955.3
2023-09-08T10:13:49.979Z,955.3
2023-09-08T10:14:52.134Z,955.2
2023-09-08T10:15:53.962Z,955.2
2023-09-08T10:16:55.849Z,955.2
2023-09-08T10:17:58.116Z,955.2
2023-09-08T10:19:00.818Z,955.2
2023-09-08T10:20:02.696Z,955.1
2023-09-08T10:21:04.545Z,955
2023-09-08T10:22:06.465Z,955.1
2023-09-08T10:23:08.557Z,955.2
2023-09-08T10:24:10.512Z,955.2
2023-09-08T10:25:12.555Z,955.2
2023-09-08T10:26:14.368Z,955.2
2023-09-08T10:27:16.354Z,955.3
2023-09-08T10:28:18.208Z,955.3
2023-09-08T10:29:20.041Z,955.2
2023-09-08T10:30:22.276Z,955.2
2023-09-08T10:31:24.565Z,955.1
2023-09-08T10:32:26.916Z,955.2
2023-09-08T10:33:29.133Z,955.2
2023-09-08T10:34:31.028Z,955.2
2023-09-08T10:35:32.841Z,955.2
2023-09-08T10:36:37.364Z,955.2
2023-09-08T10:37:39.149Z,955.2
2023-09-08T10:38:40.828Z,955.2
2023-09-08T10:39:42.954Z,955.2
2023-09-08T10:40:44.967Z,955.2
2023-09-08T10:41:46.936Z,955.2
2023-09-08T10:42:48.981Z,955.2
2023-09-08T10:43:51.202Z,955.2
2023-09-08T10:44:53.006Z,955.2
2023-09-08T10:45:54.986Z,955.2
2023-09-08T10:46:57.117Z,955.2
2023-09-08T10:47:59.167Z,955.2
2023-09-08T10:49:01.275Z,955.2
2023-09-08T10:50:03.174Z,955.2
2023-09-08T10:51:04.955Z,955.1
2023-09-08T10:52:08.280Z,955.1
2023-09-08T10:53:10.222Z,955.1
2023-09-08T10:54:11.997Z,955.2
2023-09-08T10:55:13.810Z,955.2
2023-09-08T10:56:18.864Z,955.1
2023-09-08T10:57:20.985Z,955.1
2023-09-08T10:58:22.904Z,955.2
2023-09-08T10:59:24.789Z,955.1
2023-09-08T11:00:26.536Z,955.2
2023-09-08T11:01:28.898Z,955.2
2023-09-08T11:02:31.209Z,955.1
2023-09-08T11:03:33.628Z,955.2
2023-09-08T11:04:36.126Z,955.2
2023-09-08T11:05:38.023Z,955.1
2023-09-08T11:06:39.763Z,955.1
2023-09-08T11:07:41.628Z,955.1
2023-09-08T11:08:43.742Z,955.1
2023-09-08T11:09:45.801Z,955.1
2023-09-08T11:10:47.617Z,955.1
2023-09-08T11:11:49.605Z,955.1
2023-09-08T11:12:51.761Z,955.1
2023-09-08T11:13:53.538Z,955.1
2023-09-08T11:14:55.555Z,955.1
2023-09-08T11:15:57.762Z,955.1
2023-09-08T11:16:59.539Z,955.1
2023-09-08T11:18:01.773Z,955
2023-09-08T11:19:03.812Z,955
2023-09-08T11:20:05.535Z,955
2023-09-08T11:21:07.335Z,955
2023-09-08T11:22:09.136Z,955
2023-09-08T11:23:10.920Z,955
2023-09-08T11:24:12.642Z,955
2023-09-08T11:25:14.411Z,955
2023-09-08T11:26:16.196Z,955
2023-09-08T11:27:17.955Z,955
2023-09-08T11:28:20.249Z,955
2023-09-08T11:29:22.226Z,955
2023-09-08T11:30:24.022Z,955
2023-09-08T11:31:26.044Z,955
2023-09-08T11:32:27.931Z,955
2023-09-08T11:33:29.853Z,955
2023-09-08T11:34:31.626Z,955
2023-09-08T11:35:33.330Z,954.9
2023-09-08T11:36:35.173Z,955
2023-09-08T11:37:37.028Z,955
2023-09-08T11:38:38.789Z,954.9
2023-09-08T11:39:40.517Z,954.9
2023-09-08T11:40:42.487Z,954.9
2023-09-08T11:41:44.431Z,954.9
2023-09-08T11:42:47.250Z,954.9
2023-09-08T11:43:49.504Z,954.9
2023-09-08T11:44:51.275Z,954.9
2023-09-08T11:45:53.281Z,954.9
2023-09-08T11:46:56.050Z,954.9
2023-09-08T11:47:58.426Z,954.9
2023-09-08T11:49:00.589Z,954.8
2023-09-08T11:50:02.608Z,954.8
2023-09-08T11:51:04.354Z,954.8
2023-09-08T11:52:06.226Z,954.8
2023-09-08T11:53:08.198Z,954.8
2023-09-08T11:54:09.957Z,954.8
2023-09-08T11:55:11.702Z,954.8
2023-09-08T11:56:13.394Z,954.8
2023-09-08T11:57:15.135Z,954.8
2023-09-08T11:58:17.077Z,954.8
2023-09-08T11:59:19.416Z,954.8
2023-09-08T12:00:21.392Z,954.7
2023-09-08T12:01:23.396Z,954.8
2023-09-08T12:02:25.548Z,954.7
2023-09-08T12:03:27.941Z,954.8
2023-09-08T12:04:30.199Z,954.8
2023-09-08T12:05:32.324Z,954.7
2023-09-08T12:06:34.209Z,954.8
2023-09-08T12:07:36.164Z,954.8
2023-09-08T12:08:38.670Z,954.7
2023-09-08T12:09:40.561Z,954.7
2023-09-08T12:10:42.367Z,954.7
2023-09-08T12:11:44.161Z,954.7
2023-09-08T12:12:46.046Z,954.7
2023-09-08T12:13:48.163Z,954.7
2023-09-08T12:14:50.109Z,954.6
2023-09-08T12:15:52.078Z,954.6
2023-09-08T12:16:54.171Z,954.6
2023-09-08T12:17:56.282Z,954.6
2023-09-08T12:18:58.592Z,954.5
2023-09-08T12:20:00.541Z,954.6
2023-09-08T12:21:02.292Z,954.6
2023-09-08T12:22:04.528Z,954.5
2023-09-08T12:23:06.464Z,954.6
2023-09-08T12:24:08.286Z,954.6
2023-09-08T12:25:10.102Z,954.5
2023-09-08T12:26:11.867Z,954.5
2023-09-08T12:27:13.832Z,954.5
2023-09-08T12:28:16.035Z,954.5
2023-09-08T12:29:18.002Z,954.5
2023-09-08T12:30:19.819Z,954.5
2023-09-08T12:31:22.031Z,954.5
2023-09-08T12:32:23.834Z,954.5
2023-09-08T12:33:25.576Z,954.5
2023-09-08T12:34:27.484Z,954.4
2023-09-08T12:35:33.582Z,954.5
2023-09-08T12:36:35.465Z,954.4
2023-09-08T12:37:37.421Z,954.4
2023-09-08T12:38:39.238Z,954.4
2023-09-08T12:39:40.972Z,954.4
2023-09-08T12:40:42.794Z,954.3
2023-09-08T12:41:44.506Z,954.3
2023-09-08T12:43:09.983Z,954.3
2023-09-08T12:44:29.822Z,954.3
2023-09-08T12:45:31.714Z,954.3
2023-09-08T12:46:34.164Z,954.3
2023-09-08T12:47:36.049Z,954.2
2023-09-08T12:48:38.971Z,954.2
2023-09-08T12:49:43.892Z,954.2
2023-09-08T12:50:45.768Z,954.2
2023-09-08T12:51:47.598Z,954.3
2023-09-08T12:52:49.459Z,954.3
2023-09-08T12:53:56.051Z,954.3
2023-09-08T12:55:03.479Z,954.3
2023-09-08T12:56:05.259Z,954.3
2023-09-08T12:57:07.622Z,954.4
2023-09-08T12:58:09.486Z,954.3
2023-09-08T12:59:11.274Z,954.3
2023-09-08T13:00:13.652Z,954.3
2023-09-08T13:01:15.919Z,954.3
2023-09-08T13:02:17.881Z,954.3
2023-09-08T13:03:19.583Z,954.3
2023-09-08T13:04:21.340Z,954.3
2023-09-08T13:05:23.237Z,954.3
2023-09-08T13:06:25.453Z,954.2
2023-09-08T13:07:28.796Z,954.3
2023-09-08T13:08:30.531Z,954.3
2023-09-08T13:09:32.565Z,954.3
2023-09-08T13:10:34.617Z,954.3
2023-09-08T13:11:36.548Z,954.4
2023-09-08T13:12:38.723Z,954.4
2023-09-08T13:13:40.591Z,954.3
2023-09-08T13:14:42.382Z,954.4
2023-09-08T13:15:44.376Z,954.4
2023-09-08T13:16:46.694Z,954.4
2023-09-08T13:17:49.005Z,954.4
2023-09-08T13:18:50.980Z,954.3
2023-09-08T13:19:52.793Z,954.3
2023-09-08T13:20:54.548Z,954.4
2023-09-08T13:21:56.316Z,954.3
2023-09-08T13:22:58.139Z,954.2
2023-09-08T13:23:59.990Z,954.3
2023-09-08T13:25:01.803Z,954.3
2023-09-08T13:26:03.589Z,954.3